sensor_id;sensor_type;location;lat;lon;timestamp;P1;durP1;ratioP1;P2;durP2;ratioP2
56321;SDS011;42227;6.376;-10.782;2024-03-17T00:00:38;10.38;;;8.57;;
56321;SDS011;42227;6.376;-10.782;2024-03-17T00:03:05;17.25;;;8.35;;
56321;SDS011;42227;6.376;-10.782;2024-03-17T00:05:33;12.30;;;8.90;;
56321;SDS011;42227;6.376;-10.782;2024-03-17T00:08:00;10.73;;;7.90;;
56321;SDS011;42227;6.376;-10.782;2024-03-17T00:10:27;20.58;;;8.18;;
56321;SDS011;42227;6.376;-10.782;2024-03-17T00:12:54;14.20;;;8.68;;
56321;SDS011;42227;6.376;-10.782;2024-03-17T00:15:21;12.73;;;8.93;;
56321;SDS011;42227;6.376;-10.782;2024-03-17T00:17:48;17.95;;;8.63;;
56321;SDS011;42227;6.376;-10.782;2024-03-17T00:20:15;13.95;;;7.80;;
56321;SDS011;42227;6.376;-10.782;2024-03-17T00:22:42;15.20;;;11.18;;
56321;SDS011;42227;6.376;-10.782;2024-03-17T00:25:08;14.90;;;10.90;;
56321;SDS011;42227;6.376;-10.782;2024-03-17T00:27:35;17.38;;;11.65;;
56321;SDS011;42227;6.376;-10.782;2024-03-17T00:30:02;27.58;;;13.82;;
56321;SDS011;42227;6.376;-10.782;2024-03-17T00:32:29;19.92;;;12.52;;
56321;SDS011;42227;6.376;-10.782;2024-03-17T00:34:56;17.85;;;13.52;;
56321;SDS011;42227;6.376;-10.782;2024-03-17T00:37:23;15.32;;;11.63;;
56321;SDS011;42227;6.376;-10.782;2024-03-17T00:39:50;22.90;;;10.02;;
56321;SDS011;42227;6.376;-10.782;2024-03-17T00:42:17;17.02;;;11.45;;
56321;SDS011;42227;6.376;-10.782;2024-03-17T00:44:44;13.63;;;10.25;;
56321;SDS011;42227;6.376;-10.782;2024-03-17T00:47:11;11.13;;;8.30;;
56321;SDS011;42227;6.376;-10.782;2024-03-17T00:49:38;18.23;;;9.55;;
56321;SDS011;42227;6.376;-10.782;2024-03-17T00:52:05;13.70;;;9.38;;
56321;SDS011;42227;6.376;-10.782;2024-03-17T00:54:31;15.13;;;10.15;;
56321;SDS011;42227;6.376;-10.782;2024-03-17T00:56:58;15.60;;;9.30;;
56321;SDS011;42227;6.376;-10.782;2024-03-17T00:59:25;16.17;;;9.15;;
56321;SDS011;42227;6.376;-10.782;2024-03-17T01:01:53;11.85;;;9.13;;
56321;SDS011;42227;6.376;-10.782;2024-03-17T01:04:20;16.33;;;9.38;;
56321;SDS011;42227;6.376;-10.782;2024-03-17T01:06:48;13.63;;;9.07;;
56321;SDS011;42227;6.376;-10.782;2024-03-17T01:09:14;15.85;;;9.15;;
56321;SDS011;42227;6.376;-10.782;2024-03-17T01:11:41;12.60;;;9.07;;
56321;SDS011;42227;6.376;-10.782;2024-03-17T01:14:08;14.25;;;9.35;;
56321;SDS011;42227;6.376;-10.782;2024-03-17T01:16:35;14.13;;;9.45;;
56321;SDS011;42227;6.376;-10.782;2024-03-17T01:19:02;17.70;;;9.50;;
56321;SDS011;42227;6.376;-10.782;2024-03-17T01:21:29;13.23;;;8.70;;
56321;SDS011;42227;6.376;-10.782;2024-03-17T01:23:56;12.98;;;6.43;;
56321;SDS011;42227;6.376;-10.782;2024-03-17T01:26:23;15.23;;;8.75;;
56321;SDS011;42227;6.376;-10.782;2024-03-17T01:28:52;17.92;;;9.90;;
56321;SDS011;42227;6.376;-10.782;2024-03-17T01:31:19;19.58;;;12.43;;
56321;SDS011;42227;6.376;-10.782;2024-03-17T01:33:46;18.67;;;11.77;;
56321;SDS011;42227;6.376;-10.782;2024-03-17T01:36:13;17.42;;;11.35;;
56321;SDS011;42227;6.376;-10.782;2024-03-17T01:38:40;17.90;;;13.45;;
56321;SDS011;42227;6.376;-10.782;2024-03-17T01:41:07;14.13;;;10.43;;
56321;SDS011;42227;6.376;-10.782;2024-03-17T01:43:34;14.55;;;9.63;;
56321;SDS011;42227;6.376;-10.782;2024-03-17T01:46:01;15.13;;;10.90;;
56321;SDS011;42227;6.376;-10.782;2024-03-17T01:48:28;21.35;;;11.32;;
56321;SDS011;42227;6.376;-10.782;2024-03-17T01:50:55;13.93;;;9.23;;
56321;SDS011;42227;6.376;-10.782;2024-03-17T01:53:23;17.70;;;8.95;;
56321;SDS011;42227;6.376;-10.782;2024-03-17T01:55:52;15.52;;;8.18;;
56321;SDS011;42227;6.376;-10.782;2024-03-17T01:58:24;13.98;;;8.45;;
56321;SDS011;42227;6.376;-10.782;2024-03-17T02:00:53;16.17;;;9.50;;
56321;SDS011;42227;6.376;-10.782;2024-03-17T02:03:20;20.85;;;10.23;;
56321;SDS011;42227;6.376;-10.782;2024-03-17T02:05:47;14.15;;;8.73;;
56321;SDS011;42227;6.376;-10.782;2024-03-17T02:08:14;15.00;;;7.65;;
56321;SDS011;42227;6.376;-10.782;2024-03-17T02:10:42;13.75;;;9.07;;
56321;SDS011;42227;6.376;-10.782;2024-03-17T02:13:08;11.73;;;9.60;;
56321;SDS011;42227;6.376;-10.782;2024-03-17T02:15:35;14.50;;;9.65;;
56321;SDS011;42227;6.376;-10.782;2024-03-17T02:18:03;14.18;;;9.13;;
56321;SDS011;42227;6.376;-10.782;2024-03-17T02:20:30;14.80;;;8.45;;
56321;SDS011;42227;6.376;-10.782;2024-03-17T02:22:57;14.98;;;8.13;;
56321;SDS011;42227;6.376;-10.782;2024-03-17T02:25:24;14.85;;;7.40;;
56321;SDS011;42227;6.376;-10.782;2024-03-17T02:27:50;16.38;;;8.32;;
56321;SDS011;42227;6.376;-10.782;2024-03-17T02:30:17;10.10;;;7.40;;
56321;SDS011;42227;6.376;-10.782;2024-03-17T02:32:44;13.70;;;8.82;;
56321;SDS011;42227;6.376;-10.782;2024-03-17T02:35:18;12.73;;;8.88;;
56321;SDS011;42227;6.376;-10.782;2024-03-17T02:37:45;13.40;;;8.05;;
56321;SDS011;42227;6.376;-10.782;2024-03-17T02:40:12;18.10;;;11.65;;
56321;SDS011;42227;6.376;-10.782;2024-03-17T02:42:39;13.38;;;8.38;;
56321;SDS011;42227;6.376;-10.782;2024-03-17T02:45:07;10.88;;;8.07;;
56321;SDS011;42227;6.376;-10.782;2024-03-17T02:47:34;14.80;;;9.13;;
56321;SDS011;42227;6.376;-10.782;2024-03-17T02:50:02;15.98;;;8.18;;
56321;SDS011;42227;6.376;-10.782;2024-03-17T02:52:29;10.95;;;8.40;;
56321;SDS011;42227;6.376;-10.782;2024-03-17T02:54:59;10.73;;;6.90;;
56321;SDS011;42227;6.376;-10.782;2024-03-17T02:57:26;11.88;;;6.72;;
56321;SDS011;42227;6.376;-10.782;2024-03-17T02:59:53;13.23;;;7.07;;
56321;SDS011;42227;6.376;-10.782;2024-03-17T03:02:20;12.35;;;6.38;;
56321;SDS011;42227;6.376;-10.782;2024-03-17T03:04:47;10.45;;;6.50;;
56321;SDS011;42227;6.376;-10.782;2024-03-17T03:07:14;11.57;;;8.57;;
56321;SDS011;42227;6.376;-10.782;2024-03-17T03:09:40;28.48;;;8.77;;
56321;SDS011;42227;6.376;-10.782;2024-03-17T03:12:08;12.05;;;7.53;;
56321;SDS011;42227;6.376;-10.782;2024-03-17T03:14:34;16.08;;;7.45;;
56321;SDS011;42227;6.376;-10.782;2024-03-17T03:17:01;10.00;;;6.68;;
56321;SDS011;42227;6.376;-10.782;2024-03-17T03:19:28;11.30;;;7.78;;
56321;SDS011;42227;6.376;-10.782;2024-03-17T03:21:55;13.38;;;8.18;;
56321;SDS011;42227;6.376;-10.782;2024-03-17T03:24:22;14.45;;;8.57;;
56321;SDS011;42227;6.376;-10.782;2024-03-17T03:26:49;13.73;;;7.18;;
56321;SDS011;42227;6.376;-10.782;2024-03-17T03:29:16;8.80;;;6.60;;
56321;SDS011;42227;6.376;-10.782;2024-03-17T03:31:43;14.15;;;7.38;;
56321;SDS011;42227;6.376;-10.782;2024-03-17T03:34:09;13.30;;;8.27;;
56321;SDS011;42227;6.376;-10.782;2024-03-17T03:36:38;13.90;;;8.70;;
56321;SDS011;42227;6.376;-10.782;2024-03-17T03:39:05;9.90;;;7.22;;
56321;SDS011;42227;6.376;-10.782;2024-03-17T03:41:32;21.73;;;8.73;;
56321;SDS011;42227;6.376;-10.782;2024-03-17T03:43:59;17.67;;;11.13;;
56321;SDS011;42227;6.376;-10.782;2024-03-17T03:46:26;21.45;;;11.07;;
56321;SDS011;42227;6.376;-10.782;2024-03-17T03:48:53;17.38;;;9.82;;
56321;SDS011;42227;6.376;-10.782;2024-03-17T03:51:19;20.58;;;9.02;;
56321;SDS011;42227;6.376;-10.782;2024-03-17T03:53:46;15.38;;;8.45;;
56321;SDS011;42227;6.376;-10.782;2024-03-17T03:56:13;11.95;;;8.05;;
56321;SDS011;42227;6.376;-10.782;2024-03-17T03:58:40;11.80;;;8.65;;
56321;SDS011;42227;6.376;-10.782;2024-03-17T04:01:08;10.10;;;7.03;;
56321;SDS011;42227;6.376;-10.782;2024-03-17T04:03:36;10.82;;;7.63;;
56321;SDS011;42227;6.376;-10.782;2024-03-17T04:06:04;22.85;;;8.70;;
56321;SDS011;42227;6.376;-10.782;2024-03-17T04:08:32;19.63;;;10.38;;
56321;SDS011;42227;6.376;-10.782;2024-03-17T04:11:00;18.88;;;10.23;;
56321;SDS011;42227;6.376;-10.782;2024-03-17T04:13:28;11.68;;;7.35;;
56321;SDS011;42227;6.376;-10.782;2024-03-17T04:15:56;15.60;;;7.30;;
56321;SDS011;42227;6.376;-10.782;2024-03-17T04:18:23;14.25;;;9.52;;
56321;SDS011;42227;6.376;-10.782;2024-03-17T04:20:52;12.13;;;8.98;;
56321;SDS011;42227;6.376;-10.782;2024-03-17T04:23:22;15.85;;;9.02;;
56321;SDS011;42227;6.376;-10.782;2024-03-17T04:25:50;22.33;;;12.88;;
56321;SDS011;42227;6.376;-10.782;2024-03-17T04:28:17;24.73;;;16.23;;
56321;SDS011;42227;6.376;-10.782;2024-03-17T04:30:44;20.23;;;15.40;;
56321;SDS011;42227;6.376;-10.782;2024-03-17T04:33:11;10.73;;;8.27;;
56321;SDS011;42227;6.376;-10.782;2024-03-17T04:35:39;13.70;;;9.27;;
56321;SDS011;42227;6.376;-10.782;2024-03-17T04:38:06;23.73;;;9.63;;
56321;SDS011;42227;6.376;-10.782;2024-03-17T04:40:34;15.13;;;10.98;;
56321;SDS011;42227;6.376;-10.782;2024-03-17T04:44:06;16.75;;;9.38;;
56321;SDS011;42227;6.376;-10.782;2024-03-17T04:46:33;19.95;;;12.68;;
56321;SDS011;42227;6.376;-10.782;2024-03-17T04:48:59;22.88;;;12.70;;
56321;SDS011;42227;6.376;-10.782;2024-03-17T04:51:26;18.85;;;12.73;;
56321;SDS011;42227;6.376;-10.782;2024-03-17T04:53:53;17.05;;;8.68;;
56321;SDS011;42227;6.376;-10.782;2024-03-17T04:56:20;16.52;;;11.30;;
56321;SDS011;42227;6.376;-10.782;2024-03-17T04:58:47;21.15;;;12.52;;
56321;SDS011;42227;6.376;-10.782;2024-03-17T05:01:14;19.20;;;12.15;;
56321;SDS011;42227;6.376;-10.782;2024-03-17T05:03:41;13.85;;;9.38;;
56321;SDS011;42227;6.376;-10.782;2024-03-17T05:06:08;21.67;;;10.52;;
56321;SDS011;42227;6.376;-10.782;2024-03-17T05:08:35;15.82;;;9.68;;
56321;SDS011;42227;6.376;-10.782;2024-03-17T05:11:02;16.55;;;10.50;;
56321;SDS011;42227;6.376;-10.782;2024-03-17T05:13:31;12.35;;;8.85;;
56321;SDS011;42227;6.376;-10.782;2024-03-17T05:16:02;19.63;;;9.57;;
56321;SDS011;42227;6.376;-10.782;2024-03-17T05:18:29;11.23;;;8.15;;
56321;SDS011;42227;6.376;-10.782;2024-03-17T05:20:59;13.73;;;8.63;;
56321;SDS011;42227;6.376;-10.782;2024-03-17T05:23:28;13.98;;;9.35;;
56321;SDS011;42227;6.376;-10.782;2024-03-17T05:25:56;15.93;;;10.80;;
56321;SDS011;42227;6.376;-10.782;2024-03-17T05:28:24;14.57;;;10.63;;
56321;SDS011;42227;6.376;-10.782;2024-03-17T05:30:52;17.73;;;11.48;;
56321;SDS011;42227;6.376;-10.782;2024-03-17T05:33:19;19.67;;;9.63;;
56321;SDS011;42227;6.376;-10.782;2024-03-17T05:35:50;14.07;;;9.27;;
56321;SDS011;42227;6.376;-10.782;2024-03-17T05:38:22;17.90;;;9.57;;
56321;SDS011;42227;6.376;-10.782;2024-03-17T05:40:53;12.82;;;9.40;;
56321;SDS011;42227;6.376;-10.782;2024-03-17T05:43:28;11.43;;;8.23;;
56321;SDS011;42227;6.376;-10.782;2024-03-17T05:45:59;11.90;;;9.38;;
56321;SDS011;42227;6.376;-10.782;2024-03-17T05:48:27;21.73;;;10.53;;
56321;SDS011;42227;6.376;-10.782;2024-03-17T05:50:54;11.30;;;8.35;;
56321;SDS011;42227;6.376;-10.782;2024-03-17T05:53:22;16.85;;;8.15;;
56321;SDS011;42227;6.376;-10.782;2024-03-17T05:55:49;13.43;;;8.30;;
56321;SDS011;42227;6.376;-10.782;2024-03-17T05:58:16;17.35;;;9.75;;
56321;SDS011;42227;6.376;-10.782;2024-03-17T06:00:43;15.10;;;9.93;;
56321;SDS011;42227;6.376;-10.782;2024-03-17T06:03:10;14.10;;;9.98;;
56321;SDS011;42227;6.376;-10.782;2024-03-17T06:05:38;11.63;;;8.43;;
56321;SDS011;42227;6.376;-10.782;2024-03-17T06:08:06;19.45;;;10.65;;
56321;SDS011;42227;6.376;-10.782;2024-03-17T06:10:33;12.75;;;8.88;;
56321;SDS011;42227;6.376;-10.782;2024-03-17T06:13:00;10.50;;;7.95;;
56321;SDS011;42227;6.376;-10.782;2024-03-17T06:16:30;17.70;;;8.63;;
56321;SDS011;42227;6.376;-10.782;2024-03-17T06:18:57;12.00;;;9.45;;
56321;SDS011;42227;6.376;-10.782;2024-03-17T06:21:24;16.92;;;10.32;;
56321;SDS011;42227;6.376;-10.782;2024-03-17T06:23:50;17.40;;;11.75;;
56321;SDS011;42227;6.376;-10.782;2024-03-17T06:26:17;19.58;;;11.35;;
56321;SDS011;42227;6.376;-10.782;2024-03-17T06:28:44;21.77;;;13.63;;
56321;SDS011;42227;6.376;-10.782;2024-03-17T06:31:11;26.58;;;16.15;;
56321;SDS011;42227;6.376;-10.782;2024-03-17T06:33:38;21.85;;;13.23;;
56321;SDS011;42227;6.376;-10.782;2024-03-17T06:36:05;20.42;;;14.25;;
56321;SDS011;42227;6.376;-10.782;2024-03-17T06:38:32;28.58;;;14.93;;
56321;SDS011;42227;6.376;-10.782;2024-03-17T06:40:59;25.83;;;15.40;;
56321;SDS011;42227;6.376;-10.782;2024-03-17T06:43:26;21.88;;;14.23;;
56321;SDS011;42227;6.376;-10.782;2024-03-17T06:45:56;21.13;;;14.10;;
56321;SDS011;42227;6.376;-10.782;2024-03-17T06:48:25;22.30;;;12.65;;
56321;SDS011;42227;6.376;-10.782;2024-03-17T06:50:52;23.40;;;14.65;;
56321;SDS011;42227;6.376;-10.782;2024-03-17T06:53:20;19.88;;;13.85;;
56321;SDS011;42227;6.376;-10.782;2024-03-17T06:55:57;24.50;;;13.85;;
56321;SDS011;42227;6.376;-10.782;2024-03-17T06:58:26;27.92;;;15.27;;
56321;SDS011;42227;6.376;-10.782;2024-03-17T07:00:57;26.38;;;15.18;;
56321;SDS011;42227;6.376;-10.782;2024-03-17T07:03:26;27.30;;;15.45;;
56321;SDS011;42227;6.376;-10.782;2024-03-17T07:05:58;21.38;;;13.10;;
56321;SDS011;42227;6.376;-10.782;2024-03-17T07:08:25;25.85;;;15.90;;
56321;SDS011;42227;6.376;-10.782;2024-03-17T07:11:02;25.83;;;16.85;;
56321;SDS011;42227;6.376;-10.782;2024-03-17T07:13:34;28.83;;;20.33;;
56321;SDS011;42227;6.376;-10.782;2024-03-17T07:16:03;31.13;;;20.17;;
56321;SDS011;42227;6.376;-10.782;2024-03-17T07:18:31;36.42;;;18.63;;
56321;SDS011;42227;6.376;-10.782;2024-03-17T07:20:58;24.50;;;16.83;;
56321;SDS011;42227;6.376;-10.782;2024-03-17T07:23:26;21.65;;;15.32;;
56321;SDS011;42227;6.376;-10.782;2024-03-17T07:25:54;19.00;;;13.45;;
56321;SDS011;42227;6.376;-10.782;2024-03-17T07:28:22;15.95;;;12.88;;
56321;SDS011;42227;6.376;-10.782;2024-03-17T07:30:53;20.33;;;13.20;;
56321;SDS011;42227;6.376;-10.782;2024-03-17T07:33:22;18.92;;;12.95;;
56321;SDS011;42227;6.376;-10.782;2024-03-17T07:35:50;19.63;;;13.48;;
56321;SDS011;42227;6.376;-10.782;2024-03-17T07:38:17;22.08;;;15.10;;
56321;SDS011;42227;6.376;-10.782;2024-03-17T07:40:45;26.27;;;15.18;;
56321;SDS011;42227;6.376;-10.782;2024-03-17T07:43:21;20.70;;;13.82;;
56321;SDS011;42227;6.376;-10.782;2024-03-17T07:45:56;20.40;;;14.88;;
56321;SDS011;42227;6.376;-10.782;2024-03-17T07:48:26;20.98;;;15.13;;
56321;SDS011;42227;6.376;-10.782;2024-03-17T07:50:55;23.50;;;13.98;;
56321;SDS011;42227;6.376;-10.782;2024-03-17T07:53:23;22.92;;;14.13;;
56321;SDS011;42227;6.376;-10.782;2024-03-17T07:55:59;24.77;;;16.83;;
56321;SDS011;42227;6.376;-10.782;2024-03-17T07:58:27;22.38;;;15.98;;
56321;SDS011;42227;6.376;-10.782;2024-03-17T08:00:59;22.13;;;15.73;;
56321;SDS011;42227;6.376;-10.782;2024-03-17T08:03:32;26.08;;;17.30;;
56321;SDS011;42227;6.376;-10.782;2024-03-17T08:06:00;30.17;;;18.67;;
56321;SDS011;42227;6.376;-10.782;2024-03-17T08:08:28;33.38;;;19.00;;
56321;SDS011;42227;6.376;-10.782;2024-03-17T08:10:56;24.42;;;18.35;;
56321;SDS011;42227;6.376;-10.782;2024-03-17T08:13:23;25.90;;;18.73;;
56321;SDS011;42227;6.376;-10.782;2024-03-17T08:15:58;24.30;;;18.38;;
56321;SDS011;42227;6.376;-10.782;2024-03-17T08:18:26;26.55;;;18.83;;
56321;SDS011;42227;6.376;-10.782;2024-03-17T08:20:53;25.83;;;18.38;;
56321;SDS011;42227;6.376;-10.782;2024-03-17T08:23:21;35.95;;;21.67;;
56321;SDS011;42227;6.376;-10.782;2024-03-17T08:25:55;29.65;;;17.70;;
56321;SDS011;42227;6.376;-10.782;2024-03-17T08:28:24;28.63;;;17.88;;
56321;SDS011;42227;6.376;-10.782;2024-03-17T08:30:54;38.67;;;19.02;;
56321;SDS011;42227;6.376;-10.782;2024-03-17T08:33:26;31.23;;;19.50;;
56321;SDS011;42227;6.376;-10.782;2024-03-17T08:38:28;26.35;;;19.90;;
56321;SDS011;42227;6.376;-10.782;2024-03-17T08:40:56;41.17;;;19.27;;
56321;SDS011;42227;6.376;-10.782;2024-03-17T08:43:27;27.30;;;17.45;;
56321;SDS011;42227;6.376;-10.782;2024-03-17T08:45:58;28.17;;;15.85;;
56321;SDS011;42227;6.376;-10.782;2024-03-17T08:48:26;27.48;;;17.45;;
56321;SDS011;42227;6.376;-10.782;2024-03-17T08:50:54;20.10;;;14.77;;
56321;SDS011;42227;6.376;-10.782;2024-03-17T08:53:21;18.63;;;16.10;;
56321;SDS011;42227;6.376;-10.782;2024-03-17T08:55:49;17.60;;;13.77;;
56321;SDS011;42227;6.376;-10.782;2024-03-17T08:58:17;22.38;;;12.48;;
56321;SDS011;42227;6.376;-10.782;2024-03-17T09:00:44;18.90;;;12.55;;
56321;SDS011;42227;6.376;-10.782;2024-03-17T09:03:11;16.38;;;11.57;;
56321;SDS011;42227;6.376;-10.782;2024-03-17T09:05:38;16.50;;;11.02;;
56321;SDS011;42227;6.376;-10.782;2024-03-17T09:08:06;16.83;;;11.07;;
56321;SDS011;42227;6.376;-10.782;2024-03-17T09:10:38;21.15;;;11.80;;
56321;SDS011;42227;6.376;-10.782;2024-03-17T09:13:06;17.58;;;12.15;;
56321;SDS011;42227;6.376;-10.782;2024-03-17T09:15:38;20.20;;;12.38;;
56321;SDS011;42227;6.376;-10.782;2024-03-17T09:18:05;14.77;;;10.43;;
56321;SDS011;42227;6.376;-10.782;2024-03-17T09:20:32;17.23;;;9.80;;
56321;SDS011;42227;6.376;-10.782;2024-03-17T09:22:59;15.30;;;10.02;;
56321;SDS011;42227;6.376;-10.782;2024-03-17T09:25:26;12.32;;;7.95;;
56321;SDS011;42227;6.376;-10.782;2024-03-17T09:27:52;16.52;;;8.50;;
56321;SDS011;42227;6.376;-10.782;2024-03-17T09:30:19;13.40;;;8.40;;
56321;SDS011;42227;6.376;-10.782;2024-03-17T09:32:46;15.20;;;8.68;;
56321;SDS011;42227;6.376;-10.782;2024-03-17T09:35:13;13.00;;;7.78;;
56321;SDS011;42227;6.376;-10.782;2024-03-17T09:37:40;14.35;;;7.32;;
56321;SDS011;42227;6.376;-10.782;2024-03-17T09:40:10;12.57;;;8.30;;
56321;SDS011;42227;6.376;-10.782;2024-03-17T09:42:43;11.90;;;7.00;;
56321;SDS011;42227;6.376;-10.782;2024-03-17T09:45:10;9.88;;;6.68;;
56321;SDS011;42227;6.376;-10.782;2024-03-17T09:47:38;16.67;;;8.70;;
56321;SDS011;42227;6.376;-10.782;2024-03-17T09:50:05;12.10;;;7.13;;
56321;SDS011;42227;6.376;-10.782;2024-03-17T09:52:39;14.43;;;7.65;;
56321;SDS011;42227;6.376;-10.782;2024-03-17T09:55:08;10.77;;;6.55;;
56321;SDS011;42227;6.376;-10.782;2024-03-17T09:57:39;12.50;;;7.07;;
56321;SDS011;42227;6.376;-10.782;2024-03-17T10:00:09;15.25;;;8.10;;
56321;SDS011;42227;6.376;-10.782;2024-03-17T10:02:41;8.95;;;7.30;;
56321;SDS011;42227;6.376;-10.782;2024-03-17T10:05:18;13.45;;;6.63;;
56321;SDS011;42227;6.376;-10.782;2024-03-17T10:07:46;18.40;;;8.75;;
56321;SDS011;42227;6.376;-10.782;2024-03-17T10:10:12;14.40;;;7.95;;
56321;SDS011;42227;6.376;-10.782;2024-03-17T10:12:40;11.38;;;8.50;;
56321;SDS011;42227;6.376;-10.782;2024-03-17T10:15:07;8.07;;;6.80;;
56321;SDS011;42227;6.376;-10.782;2024-03-17T10:17:37;14.57;;;8.20;;
56321;SDS011;42227;6.376;-10.782;2024-03-17T10:20:14;9.95;;;6.22;;
56321;SDS011;42227;6.376;-10.782;2024-03-17T10:22:59;12.63;;;7.95;;
56321;SDS011;42227;6.376;-10.782;2024-03-17T10:25:27;18.50;;;8.18;;
56321;SDS011;42227;6.376;-10.782;2024-03-17T10:27:55;12.10;;;7.38;;
56321;SDS011;42227;6.376;-10.782;2024-03-17T10:30:22;10.88;;;7.00;;
56321;SDS011;42227;6.376;-10.782;2024-03-17T10:32:57;9.88;;;6.18;;
56321;SDS011;42227;6.376;-10.782;2024-03-17T10:35:34;9.15;;;6.20;;
56321;SDS011;42227;6.376;-10.782;2024-03-17T10:38:03;10.98;;;6.63;;
56321;SDS011;42227;6.376;-10.782;2024-03-17T10:40:31;13.63;;;7.45;;
56321;SDS011;42227;6.376;-10.782;2024-03-17T10:43:00;22.73;;;7.72;;
56321;SDS011;42227;6.376;-10.782;2024-03-17T10:45:27;9.15;;;5.90;;
56321;SDS011;42227;6.376;-10.782;2024-03-17T10:47:54;11.20;;;6.90;;
56321;SDS011;42227;6.376;-10.782;2024-03-17T10:50:22;12.38;;;6.13;;
56321;SDS011;42227;6.376;-10.782;2024-03-17T10:52:50;10.60;;;6.75;;
56321;SDS011;42227;6.376;-10.782;2024-03-17T10:55:21;11.38;;;5.60;;
56321;SDS011;42227;6.376;-10.782;2024-03-17T10:57:55;13.45;;;7.53;;
56321;SDS011;42227;6.376;-10.782;2024-03-17T11:00:23;11.77;;;6.80;;
56321;SDS011;42227;6.376;-10.782;2024-03-17T11:02:53;10.43;;;5.78;;
56321;SDS011;42227;6.376;-10.782;2024-03-17T11:05:24;10.57;;;5.68;;
56321;SDS011;42227;6.376;-10.782;2024-03-17T11:07:52;9.25;;;5.50;;
56321;SDS011;42227;6.376;-10.782;2024-03-17T11:10:22;6.45;;;4.55;;
56321;SDS011;42227;6.376;-10.782;2024-03-17T11:13:00;10.15;;;6.50;;
56321;SDS011;42227;6.376;-10.782;2024-03-17T11:15:36;9.47;;;6.00;;
56321;SDS011;42227;6.376;-10.782;2024-03-17T11:20:40;9.43;;;5.45;;
56321;SDS011;42227;6.376;-10.782;2024-03-17T11:23:09;10.23;;;5.85;;
56321;SDS011;42227;6.376;-10.782;2024-03-17T11:25:51;11.57;;;5.95;;
56321;SDS011;42227;6.376;-10.782;2024-03-17T11:28:43;10.90;;;5.10;;
56321;SDS011;42227;6.376;-10.782;2024-03-17T11:34:04;13.70;;;6.28;;
56321;SDS011;42227;6.376;-10.782;2024-03-17T11:36:36;9.40;;;6.78;;
56321;SDS011;42227;6.376;-10.782;2024-03-17T11:39:05;12.25;;;5.65;;
56321;SDS011;42227;6.376;-10.782;2024-03-17T11:44:14;7.78;;;5.63;;
56321;SDS011;42227;6.376;-10.782;2024-03-17T11:46:45;6.93;;;5.07;;
56321;SDS011;42227;6.376;-10.782;2024-03-17T11:51:48;13.82;;;6.15;;
56321;SDS011;42227;6.376;-10.782;2024-03-17T11:54:17;12.70;;;5.38;;
56321;SDS011;42227;6.376;-10.782;2024-03-17T11:56:50;7.53;;;4.93;;
56321;SDS011;42227;6.376;-10.782;2024-03-17T11:59:18;11.68;;;6.72;;
56321;SDS011;42227;6.376;-10.782;2024-03-17T12:01:45;15.00;;;7.35;;
56321;SDS011;42227;6.376;-10.782;2024-03-17T12:04:14;8.32;;;5.45;;
56321;SDS011;42227;6.376;-10.782;2024-03-17T12:06:52;10.75;;;6.28;;
56321;SDS011;42227;6.376;-10.782;2024-03-17T12:12:11;16.85;;;9.25;;
56321;SDS011;42227;6.376;-10.782;2024-03-17T12:14:56;9.40;;;6.63;;
56321;SDS011;42227;6.376;-10.782;2024-03-17T12:17:24;13.35;;;6.88;;
56321;SDS011;42227;6.376;-10.782;2024-03-17T12:19:51;17.30;;;8.70;;
56321;SDS011;42227;6.376;-10.782;2024-03-17T12:22:22;14.75;;;7.85;;
56321;SDS011;42227;6.376;-10.782;2024-03-17T12:24:50;8.68;;;6.80;;
56321;SDS011;42227;6.376;-10.782;2024-03-17T12:27:19;18.92;;;12.57;;
56321;SDS011;42227;6.376;-10.782;2024-03-17T12:29:48;20.08;;;10.70;;
56321;SDS011;42227;6.376;-10.782;2024-03-17T12:32:23;14.07;;;7.45;;
56321;SDS011;42227;6.376;-10.782;2024-03-17T12:34:52;9.15;;;6.15;;
56321;SDS011;42227;6.376;-10.782;2024-03-17T12:37:22;12.07;;;7.32;;
56321;SDS011;42227;6.376;-10.782;2024-03-17T12:39:50;11.43;;;6.82;;
56321;SDS011;42227;6.376;-10.782;2024-03-17T12:42:22;9.00;;;6.85;;
56321;SDS011;42227;6.376;-10.782;2024-03-17T12:44:51;13.68;;;7.93;;
56321;SDS011;42227;6.376;-10.782;2024-03-17T12:47:21;13.52;;;9.25;;
56321;SDS011;42227;6.376;-10.782;2024-03-17T12:52:23;11.88;;;6.68;;
56321;SDS011;42227;6.376;-10.782;2024-03-17T12:54:57;11.13;;;7.45;;
56321;SDS011;42227;6.376;-10.782;2024-03-17T12:57:25;10.85;;;7.03;;
56321;SDS011;42227;6.376;-10.782;2024-03-17T12:59:52;13.85;;;7.38;;
56321;SDS011;42227;6.376;-10.782;2024-03-17T13:02:19;10.20;;;6.38;;
56321;SDS011;42227;6.376;-10.782;2024-03-17T13:04:46;8.65;;;5.60;;
56321;SDS011;42227;6.376;-10.782;2024-03-17T13:07:13;10.30;;;5.30;;
56321;SDS011;42227;6.376;-10.782;2024-03-17T13:09:40;18.75;;;7.03;;
56321;SDS011;42227;6.376;-10.782;2024-03-17T13:12:16;16.48;;;8.85;;
56321;SDS011;42227;6.376;-10.782;2024-03-17T13:14:43;15.52;;;6.40;;
56321;SDS011;42227;6.376;-10.782;2024-03-17T13:17:11;10.43;;;6.40;;
56321;SDS011;42227;6.376;-10.782;2024-03-17T13:19:41;15.00;;;7.55;;
56321;SDS011;42227;6.376;-10.782;2024-03-17T13:22:11;8.93;;;6.82;;
56321;SDS011;42227;6.376;-10.782;2024-03-17T13:24:38;9.88;;;5.95;;
56321;SDS011;42227;6.376;-10.782;2024-03-17T13:27:05;11.95;;;6.57;;
56321;SDS011;42227;6.376;-10.782;2024-03-17T13:29:34;15.20;;;7.60;;
56321;SDS011;42227;6.376;-10.782;2024-03-17T13:32:02;14.07;;;10.32;;
56321;SDS011;42227;6.376;-10.782;2024-03-17T13:34:29;11.77;;;8.15;;
56321;SDS011;42227;6.376;-10.782;2024-03-17T13:36:56;12.93;;;9.00;;
56321;SDS011;42227;6.376;-10.782;2024-03-17T13:39:28;14.93;;;6.88;;
56321;SDS011;42227;6.376;-10.782;2024-03-17T13:41:56;9.18;;;5.55;;
56321;SDS011;42227;6.376;-10.782;2024-03-17T13:44:23;15.48;;;7.15;;
56321;SDS011;42227;6.376;-10.782;2024-03-17T13:46:50;12.13;;;7.03;;
56321;SDS011;42227;6.376;-10.782;2024-03-17T13:49:16;11.70;;;5.82;;
56321;SDS011;42227;6.376;-10.782;2024-03-17T13:51:44;11.07;;;6.82;;
56321;SDS011;42227;6.376;-10.782;2024-03-17T13:54:10;12.15;;;5.75;;
56321;SDS011;42227;6.376;-10.782;2024-03-17T13:56:37;22.55;;;6.95;;
56321;SDS011;42227;6.376;-10.782;2024-03-17T13:59:04;7.45;;;5.65;;
56321;SDS011;42227;6.376;-10.782;2024-03-17T14:01:31;37.45;;;18.88;;
56321;SDS011;42227;6.376;-10.782;2024-03-17T14:03:59;31.60;;;15.13;;
56321;SDS011;42227;6.376;-10.782;2024-03-17T14:06:26;10.57;;;7.88;;
56321;SDS011;42227;6.376;-10.782;2024-03-17T14:08:52;20.60;;;11.68;;
56321;SDS011;42227;6.376;-10.782;2024-03-17T14:11:19;15.50;;;6.60;;
56321;SDS011;42227;6.376;-10.782;2024-03-17T14:13:46;21.98;;;13.60;;
56321;SDS011;42227;6.376;-10.782;2024-03-17T14:16:13;40.72;;;25.10;;
56321;SDS011;42227;6.376;-10.782;2024-03-17T14:18:40;99.22;;;61.28;;
56321;SDS011;42227;6.376;-10.782;2024-03-17T14:21:07;47.88;;;29.00;;
56321;SDS011;42227;6.376;-10.782;2024-03-17T14:23:34;29.52;;;16.15;;
56321;SDS011;42227;6.376;-10.782;2024-03-17T14:26:00;22.85;;;11.27;;
56321;SDS011;42227;6.376;-10.782;2024-03-17T14:28:27;47.10;;;32.33;;
56321;SDS011;42227;6.376;-10.782;2024-03-17T14:30:54;48.92;;;30.58;;
56321;SDS011;42227;6.376;-10.782;2024-03-17T14:33:21;10.10;;;6.25;;
56321;SDS011;42227;6.376;-10.782;2024-03-17T14:35:55;9.77;;;6.18;;
56321;SDS011;42227;6.376;-10.782;2024-03-17T14:38:23;18.50;;;8.73;;
56321;SDS011;42227;6.376;-10.782;2024-03-17T14:40:53;11.27;;;6.60;;
56321;SDS011;42227;6.376;-10.782;2024-03-17T14:43:20;21.38;;;10.90;;
56321;SDS011;42227;6.376;-10.782;2024-03-17T14:45:46;11.80;;;8.05;;